sensor_id;sensor_type;location;lat;lon;timestamp;temperature;humidity
3944;DHT22;1986;52.546;13.428;2023-03-19T00:00:23;10.30;99.90
3944;DHT22;1986;52.546;13.428;2023-03-19T00:02:51;10.30;99.90
3944;DHT22;1986;52.546;13.428;2023-03-19T00:05:18;10.30;99.90
3944;DHT22;1986;52.546;13.428;2023-03-19T00:07:46;10.30;99.90
3944;DHT22;1986;52.546;13.428;2023-03-19T00:10:14;10.30;99.90
3944;DHT22;1986;52.546;13.428;2023-03-19T00:12:41;10.30;99.90
3944;DHT22;1986;52.546;13.428;2023-03-19T00:15:08;10.20;99.90
3944;DHT22;1986;52.546;13.428;2023-03-19T00:17:40;10.20;99.90
3944;DHT22;1986;52.546;13.428;2023-03-19T00:20:08;10.20;99.90
3944;DHT22;1986;52.546;13.428;2023-03-19T00:22:36;10.20;99.90
3944;DHT22;1986;52.546;13.428;2023-03-19T00:25:05;10.20;99.90
3944;DHT22;1986;52.546;13.428;2023-03-19T00:27:32;10.10;99.90
3944;DHT22;1986;52.546;13.428;2023-03-19T00:29:59;10.10;99.90
3944;DHT22;1986;52.546;13.428;2023-03-19T00:32:27;10.10;99.90
3944;DHT22;1986;52.546;13.428;2023-03-19T00:34:55;10.10;99.90
3944;DHT22;1986;52.546;13.428;2023-03-19T00:37:23;10.10;99.90
3944;DHT22;1986;52.546;13.428;2023-03-19T00:39:50;10.00;99.90
3944;DHT22;1986;52.546;13.428;2023-03-19T00:42:17;10.00;99.90
3944;DHT22;1986;52.546;13.428;2023-03-19T00:44:44;9.90;99.90
3944;DHT22;1986;52.546;13.428;2023-03-19T00:47:11;9.90;99.90
3944;DHT22;1986;52.546;13.428;2023-03-19T00:49:37;9.80;99.90
3944;DHT22;1986;52.546;13.428;2023-03-19T00:52:06;9.80;99.90
3944;DHT22;1986;52.546;13.428;2023-03-19T00:54:33;9.70;99.90
3944;DHT22;1986;52.546;13.428;2023-03-19T00:57:00;9.70;99.90
3944;DHT22;1986;52.546;13.428;2023-03-19T00:59:27;9.70;99.90
3944;DHT22;1986;52.546;13.428;2023-03-19T01:01:54;9.70;99.90
3944;DHT22;1986;52.546;13.428;2023-03-19T01:04:22;9.60;99.90
3944;DHT22;1986;52.546;13.428;2023-03-19T01:06:49;9.60;99.90
3944;DHT22;1986;52.546;13.428;2023-03-19T01:09:18;9.50;99.90
3944;DHT22;1986;52.546;13.428;2023-03-19T01:11:45;9.50;99.90
3944;DHT22;1986;52.546;13.428;2023-03-19T01:14:13;9.50;99.90
3944;DHT22;1986;52.546;13.428;2023-03-19T01:16:41;9.40;99.90
3944;DHT22;1986;52.546;13.428;2023-03-19T01:19:08;9.40;99.90
3944;DHT22;1986;52.546;13.428;2023-03-19T01:21:37;9.40;99.90
3944;DHT22;1986;52.546;13.428;2023-03-19T01:24:13;9.40;99.90
3944;DHT22;1986;52.546;13.428;2023-03-19T01:26:42;9.30;99.90
3944;DHT22;1986;52.546;13.428;2023-03-19T01:29:12;9.30;99.90
3944;DHT22;1986;52.546;13.428;2023-03-19T01:31:40;9.30;99.90
3944;DHT22;1986;52.546;13.428;2023-03-19T01:34:07;9.20;99.90
3944;DHT22;1986;52.546;13.428;2023-03-19T01:36:34;9.20;99.90
3944;DHT22;1986;52.546;13.428;2023-03-19T01:39:01;9.20;99.90
3944;DHT22;1986;52.546;13.428;2023-03-19T01:41:28;9.20;99.90
3944;DHT22;1986;52.546;13.428;2023-03-19T01:43:56;9.20;99.90
3944;DHT22;1986;52.546;13.428;2023-03-19T01:46:26;9.20;99.90
3944;DHT22;1986;52.546;13.428;2023-03-19T01:48:57;9.20;99.90
3944;DHT22;1986;52.546;13.428;2023-03-19T01:51:26;9.10;99.90
3944;DHT22;1986;52.546;13.428;2023-03-19T01:53:56;9.10;99.90
3944;DHT22;1986;52.546;13.428;2023-03-19T01:56:30;9.10;99.90
3944;DHT22;1986;52.546;13.428;2023-03-19T01:59:09;9.10;99.90
3944;DHT22;1986;52.546;13.428;2023-03-19T02:01:42;9.10;99.90
3944;DHT22;1986;52.546;13.428;2023-03-19T02:04:12;9.00;99.90
3944;DHT22;1986;52.546;13.428;2023-03-19T02:06:40;8.90;99.90
3944;DHT22;1986;52.546;13.428;2023-03-19T02:09:10;8.90;99.90
3944;DHT22;1986;52.546;13.428;2023-03-19T02:11:38;8.90;99.90
3944;DHT22;1986;52.546;13.428;2023-03-19T02:14:09;8.90;99.90
3944;DHT22;1986;52.546;13.428;2023-03-19T02:16:37;8.90;99.90
3944;DHT22;1986;52.546;13.428;2023-03-19T02:19:07;8.90;99.90
3944;DHT22;1986;52.546;13.428;2023-03-19T02:21:35;8.90;99.90
3944;DHT22;1986;52.546;13.428;2023-03-19T02:24:07;8.90;99.90
3944;DHT22;1986;52.546;13.428;2023-03-19T02:26:38;8.80;99.90
3944;DHT22;1986;52.546;13.428;2023-03-19T02:29:06;8.80;99.90
3944;DHT22;1986;52.546;13.428;2023-03-19T02:31:36;8.80;99.90
3944;DHT22;1986;52.546;13.428;2023-03-19T02:34:05;8.70;99.90
3944;DHT22;1986;52.546;13.428;2023-03-19T02:36:47;8.80;99.90
3944;DHT22;1986;52.546;13.428;2023-03-19T02:39:23;8.70;99.90
3944;DHT22;1986;52.546;13.428;2023-03-19T02:41:53;8.80;99.90
3944;DHT22;1986;52.546;13.428;2023-03-19T02:44:22;8.70;99.90
3944;DHT22;1986;52.546;13.428;2023-03-19T02:46:50;8.80;99.90
3944;DHT22;1986;52.546;13.428;2023-03-19T02:49:18;8.80;99.90
3944;DHT22;1986;52.546;13.428;2023-03-19T02:51:45;8.70;99.90
3944;DHT22;1986;52.546;13.428;2023-03-19T02:54:11;8.80;99.90
3944;DHT22;1986;52.546;13.428;2023-03-19T02:56:38;8.80;99.90
3944;DHT22;1986;52.546;13.428;2023-03-19T02:59:07;8.70;99.90
3944;DHT22;1986;52.546;13.428;2023-03-19T03:01:34;8.80;99.90
3944;DHT22;1986;52.546;13.428;2023-03-19T03:04:02;8.80;99.90
3944;DHT22;1986;52.546;13.428;2023-03-19T03:06:29;8.70;99.90
3944;DHT22;1986;52.546;13.428;2023-03-19T03:08:56;8.60;99.90
3944;DHT22;1986;52.546;13.428;2023-03-19T03:11:23;8.60;99.90
3944;DHT22;1986;52.546;13.428;2023-03-19T03:13:53;8.60;99.90
3944;DHT22;1986;52.546;13.428;2023-03-19T03:16:22;8.60;99.90
3944;DHT22;1986;52.546;13.428;2023-03-19T03:18:49;8.60;99.90
3944;DHT22;1986;52.546;13.428;2023-03-19T03:21:16;8.60;99.90
3944;DHT22;1986;52.546;13.428;2023-03-19T03:23:44;8.50;99.90
3944;DHT22;1986;52.546;13.428;2023-03-19T03:26:13;8.50;99.90
3944;DHT22;1986;52.546;13.428;2023-03-19T03:28:40;8.50;99.90
3944;DHT22;1986;52.546;13.428;2023-03-19T03:31:08;8.50;99.90
3944;DHT22;1986;52.546;13.428;2023-03-19T03:33:39;8.50;99.90
3944;DHT22;1986;52.546;13.428;2023-03-19T03:36:06;8.50;99.90
3944;DHT22;1986;52.546;13.428;2023-03-19T03:38:34;8.50;99.90
3944;DHT22;1986;52.546;13.428;2023-03-19T03:41:06;8.40;99.90
3944;DHT22;1986;52.546;13.428;2023-03-19T03:43:36;8.50;99.90
3944;DHT22;1986;52.546;13.428;2023-03-19T03:46:04;8.60;99.90
3944;DHT22;1986;52.546;13.428;2023-03-19T03:48:32;8.70;99.90
3944;DHT22;1986;52.546;13.428;2023-03-19T03:51:00;8.80;99.90
3944;DHT22;1986;52.546;13.428;2023-03-19T03:53:27;8.90;99.90
3944;DHT22;1986;52.546;13.428;2023-03-19T03:55:54;8.90;99.90
3944;DHT22;1986;52.546;13.428;2023-03-19T03:58:21;8.90;99.90
3944;DHT22;1986;52.546;13.428;2023-03-19T04:00:49;9.00;99.90
3944;DHT22;1986;52.546;13.428;2023-03-19T04:03:16;9.00;99.90
3944;DHT22;1986;52.546;13.428;2023-03-19T04:05:44;9.00;99.90
3944;DHT22;1986;52.546;13.428;2023-03-19T04:08:12;8.90;99.90
3944;DHT22;1986;52.546;13.428;2023-03-19T04:10:41;8.90;99.90
3944;DHT22;1986;52.546;13.428;2023-03-19T04:13:08;8.80;99.90
3944;DHT22;1986;52.546;13.428;2023-03-19T04:15:35;8.70;99.90
3944;DHT22;1986;52.546;13.428;2023-03-19T04:18:03;8.70;99.90
3944;DHT22;1986;52.546;13.428;2023-03-19T04:20:30;8.80;99.90
3944;DHT22;1986;52.546;13.428;2023-03-19T04:22:57;8.80;99.90
3944;DHT22;1986;52.546;13.428;2023-03-19T04:25:25;8.80;99.90
3944;DHT22;1986;52.546;13.428;2023-03-19T04:27:52;8.70;99.90
3944;DHT22;1986;52.546;13.428;2023-03-19T04:30:19;8.60;99.90
3944;DHT22;1986;52.546;13.428;2023-03-19T04:32:46;8.50;99.90
3944;DHT22;1986;52.546;13.428;2023-03-19T04:35:13;8.50;99.90
3944;DHT22;1986;52.546;13.428;2023-03-19T04:37:40;8.40;99.90
3944;DHT22;1986;52.546;13.428;2023-03-19T04:40:13;8.40;99.90
3944;DHT22;1986;52.546;13.428;2023-03-19T04:42:41;8.40;99.90
3944;DHT22;1986;52.546;13.428;2023-03-19T04:45:10;8.60;99.90
3944;DHT22;1986;52.546;13.428;2023-03-19T04:47:37;8.60;99.90
3944;DHT22;1986;52.546;13.428;2023-03-19T04:50:05;8.70;99.90
3944;DHT22;1986;52.546;13.428;2023-03-19T04:52:33;8.80;99.90
3944;DHT22;1986;52.546;13.428;2023-03-19T04:55:02;8.90;99.90
3944;DHT22;1986;52.546;13.428;2023-03-19T04:57:29;8.80;99.90
3944;DHT22;1986;52.546;13.428;2023-03-19T04:59:58;8.90;99.90
3944;DHT22;1986;52.546;13.428;2023-03-19T05:02:25;9.00;99.90
3944;DHT22;1986;52.546;13.428;2023-03-19T05:04:54;9.00;99.90
3944;DHT22;1986;52.546;13.428;2023-03-19T05:07:20;9.00;99.90
3944;DHT22;1986;52.546;13.428;2023-03-19T05:09:47;9.00;99.90
3944;DHT22;1986;52.546;13.428;2023-03-19T05:12:14;9.00;99.90
3944;DHT22;1986;52.546;13.428;2023-03-19T05:14:41;9.00;99.90
3944;DHT22;1986;52.546;13.428;2023-03-19T05:17:10;9.00;99.90
3944;DHT22;1986;52.546;13.428;2023-03-19T05:19:38;8.90;99.90
3944;DHT22;1986;52.546;13.428;2023-03-19T05:22:05;9.00;99.90
3944;DHT22;1986;52.546;13.428;2023-03-19T05:24:35;8.90;99.90
3944;DHT22;1986;52.546;13.428;2023-03-19T05:27:05;8.50;99.90
3944;DHT22;1986;52.546;13.428;2023-03-19T05:29:35;8.40;99.90
3944;DHT22;1986;52.546;13.428;2023-03-19T05:32:03;8.50;99.90
3944;DHT22;1986;52.546;13.428;2023-03-19T05:34:34;8.60;99.90
3944;DHT22;1986;52.546;13.428;2023-03-19T05:37:03;8.60;99.90
3944;DHT22;1986;52.546;13.428;2023-03-19T05:39:30;8.60;99.90
3944;DHT22;1986;52.546;13.428;2023-03-19T05:41:57;8.60;99.90
3944;DHT22;1986;52.546;13.428;2023-03-19T05:44:24;8.50;99.90
3944;DHT22;1986;52.546;13.428;2023-03-19T05:46:51;8.50;99.90
3944;DHT22;1986;52.546;13.428;2023-03-19T05:49:18;8.50;99.90
3944;DHT22;1986;52.546;13.428;2023-03-19T05:51:48;8.60;99.90
3944;DHT22;1986;52.546;13.428;2023-03-19T05:54:15;8.60;99.90
3944;DHT22;1986;52.546;13.428;2023-03-19T05:56:43;8.60;99.90
3944;DHT22;1986;52.546;13.428;2023-03-19T05:59:10;8.50;99.90
3944;DHT22;1986;52.546;13.428;2023-03-19T06:01:38;8.60;99.90
3944;DHT22;1986;52.546;13.428;2023-03-19T06:04:05;8.60;99.90
3944;DHT22;1986;52.546;13.428;2023-03-19T06:06:33;8.50;99.90
3944;DHT22;1986;52.546;13.428;2023-03-19T06:09:02;8.50;99.90
3944;DHT22;1986;52.546;13.428;2023-03-19T06:11:29;8.60;99.90
3944;DHT22;1986;52.546;13.428;2023-03-19T06:13:57;8.60;99.90
3944;DHT22;1986;52.546;13.428;2023-03-19T06:16:26;8.70;99.90
3944;DHT22;1986;52.546;13.428;2023-03-19T06:18:53;8.70;99.90
3944;DHT22;1986;52.546;13.428;2023-03-19T06:21:20;8.80;99.90
3944;DHT22;1986;52.546;13.428;2023-03-19T06:23:50;8.90;99.90
3944;DHT22;1986;52.546;13.428;2023-03-19T06:26:18;9.20;99.90
3944;DHT22;1986;52.546;13.428;2023-03-19T06:28:45;9.20;99.90
3944;DHT22;1986;52.546;13.428;2023-03-19T06:31:12;9.30;99.90
3944;DHT22;1986;52.546;13.428;2023-03-19T06:33:40;9.40;99.90
3944;DHT22;1986;52.546;13.428;2023-03-19T06:36:08;9.60;99.90
3944;DHT22;1986;52.546;13.428;2023-03-19T06:38:35;9.70;99.90
3944;DHT22;1986;52.546;13.428;2023-03-19T06:41:02;9.80;99.90
3944;DHT22;1986;52.546;13.428;2023-03-19T06:43:30;9.90;99.90
3944;DHT22;1986;52.546;13.428;2023-03-19T06:46:01;10.00;99.90
3944;DHT22;1986;52.546;13.428;2023-03-19T06:48:28;10.20;99.90
3944;DHT22;1986;52.546;13.428;2023-03-19T06:50:56;10.20;99.90
3944;DHT22;1986;52.546;13.428;2023-03-19T06:53:23;10.20;99.90
3944;DHT22;1986;52.546;13.428;2023-03-19T06:55:50;10.30;99.90
3944;DHT22;1986;52.546;13.428;2023-03-19T06:58:17;10.40;99.90
3944;DHT22;1986;52.546;13.428;2023-03-19T07:00:45;10.50;99.90
3944;DHT22;1986;52.546;13.428;2023-03-19T07:03:12;10.50;99.90
3944;DHT22;1986;52.546;13.428;2023-03-19T07:05:40;10.50;99.90
3944;DHT22;1986;52.546;13.428;2023-03-19T07:08:07;10.40;99.90
3944;DHT22;1986;52.546;13.428;2023-03-19T07:10:38;10.30;99.90
3944;DHT22;1986;52.546;13.428;2023-03-19T07:13:05;10.50;99.90
3944;DHT22;1986;52.546;13.428;2023-03-19T07:15:32;10.40;99.90
3944;DHT22;1986;52.546;13.428;2023-03-19T07:18:03;10.30;99.90
3944;DHT22;1986;52.546;13.428;2023-03-19T07:20:31;10.10;99.90
3944;DHT22;1986;52.546;13.428;2023-03-19T07:22:58;10.00;99.90
3944;DHT22;1986;52.546;13.428;2023-03-19T07:25:25;10.10;99.90
3944;DHT22;1986;52.546;13.428;2023-03-19T07:27:52;10.10;99.90
3944;DHT22;1986;52.546;13.428;2023-03-19T07:30:19;10.10;99.90
3944;DHT22;1986;52.546;13.428;2023-03-19T07:32:46;10.00;99.90
3944;DHT22;1986;52.546;13.428;2023-03-19T07:35:14;9.90;99.90
3944;DHT22;1986;52.546;13.428;2023-03-19T07:37:41;9.90;99.90
3944;DHT22;1986;52.546;13.428;2023-03-19T07:40:09;9.80;99.90
3944;DHT22;1986;52.546;13.428;2023-03-19T07:42:36;9.60;99.90
3944;DHT22;1986;52.546;13.428;2023-03-19T07:45:04;9.30;99.90
3944;DHT22;1986;52.546;13.428;2023-03-19T07:47:32;9.00;99.90
3944;DHT22;1986;52.546;13.428;2023-03-19T07:50:00;8.80;99.90
3944;DHT22;1986;52.546;13.428;2023-03-19T07:52:28;8.80;99.90
3944;DHT22;1986;52.546;13.428;2023-03-19T07:54:55;8.70;99.90
3944;DHT22;1986;52.546;13.428;2023-03-19T07:57:23;8.80;99.90
3944;DHT22;1986;52.546;13.428;2023-03-19T07:59:50;9.00;99.90
3944;DHT22;1986;52.546;13.428;2023-03-19T08:02:18;9.10;99.90
3944;DHT22;1986;52.546;13.428;2023-03-19T08:04:45;9.20;99.90
3944;DHT22;1986;52.546;13.428;2023-03-19T08:07:13;9.20;99.90
3944;DHT22;1986;52.546;13.428;2023-03-19T08:09:42;9.20;99.90
3944;DHT22;1986;52.546;13.428;2023-03-19T08:12:10;9.20;99.90
3944;DHT22;1986;52.546;13.428;2023-03-19T08:14:37;9.20;99.90
3944;DHT22;1986;52.546;13.428;2023-03-19T08:17:05;9.30;99.90
3944;DHT22;1986;52.546;13.428;2023-03-19T08:19:32;9.20;99.90
3944;DHT22;1986;52.546;13.428;2023-03-19T08:21:59;9.20;99.90
3944;DHT22;1986;52.546;13.428;2023-03-19T08:24:26;9.20;99.90
3944;DHT22;1986;52.546;13.428;2023-03-19T08:26:55;9.30;99.90
3944;DHT22;1986;52.546;13.428;2023-03-19T08:29:22;9.40;99.90
3944;DHT22;1986;52.546;13.428;2023-03-19T08:31:51;9.30;99.90
3944;DHT22;1986;52.546;13.428;2023-03-19T08:34:18;9.40;99.90
3944;DHT22;1986;52.546;13.428;2023-03-19T08:36:46;9.40;99.90
3944;DHT22;1986;52.546;13.428;2023-03-19T08:39:15;9.50;99.90
3944;DHT22;1986;52.546;13.428;2023-03-19T08:41:42;9.70;99.90
3944;DHT22;1986;52.546;13.428;2023-03-19T08:44:11;9.60;99.90
3944;DHT22;1986;52.546;13.428;2023-03-19T08:46:40;9.60;99.90
3944;DHT22;1986;52.546;13.428;2023-03-19T08:49:08;9.60;99.90
3944;DHT22;1986;52.546;13.428;2023-03-19T08:51:35;9.60;99.90
3944;DHT22;1986;52.546;13.428;2023-03-19T08:54:02;9.60;99.90
3944;DHT22;1986;52.546;13.428;2023-03-19T08:56:29;9.60;99.90
3944;DHT22;1986;52.546;13.428;2023-03-19T08:58:56;9.50;99.90
3944;DHT22;1986;52.546;13.428;2023-03-19T09:01:24;9.40;99.90
3944;DHT22;1986;52.546;13.428;2023-03-19T09:03:53;9.30;99.90
3944;DHT22;1986;52.546;13.428;2023-03-19T09:06:20;9.30;99.90
3944;DHT22;1986;52.546;13.428;2023-03-19T09:08:47;9.30;99.90
3944;DHT22;1986;52.546;13.428;2023-03-19T09:11:14;9.30;99.90
3944;DHT22;1986;52.546;13.428;2023-03-19T09:13:42;9.20;99.90
3944;DHT22;1986;52.546;13.428;2023-03-19T09:16:09;9.20;99.90
3944;DHT22;1986;52.546;13.428;2023-03-19T09:18:38;9.20;99.90
3944;DHT22;1986;52.546;13.428;2023-03-19T09:21:05;9.20;99.90
3944;DHT22;1986;52.546;13.428;2023-03-19T09:23:32;9.30;99.90
3944;DHT22;1986;52.546;13.428;2023-03-19T09:25:59;9.50;99.90
3944;DHT22;1986;52.546;13.428;2023-03-19T09:28:26;9.70;99.90
3944;DHT22;1986;52.546;13.428;2023-03-19T09:30:53;9.90;99.90
3944;DHT22;1986;52.546;13.428;2023-03-19T09:33:20;10.00;99.90
3944;DHT22;1986;52.546;13.428;2023-03-19T09:35:53;10.10;99.90
3944;DHT22;1986;52.546;13.428;2023-03-19T09:38:20;10.20;99.90
3944;DHT22;1986;52.546;13.428;2023-03-19T09:40:53;10.20;99.90
3944;DHT22;1986;52.546;13.428;2023-03-19T09:43:38;10.20;99.90
3944;DHT22;1986;52.546;13.428;2023-03-19T09:46:10;10.20;99.90
3944;DHT22;1986;52.546;13.428;2023-03-19T09:48:45;10.20;99.90
3944;DHT22;1986;52.546;13.428;2023-03-19T09:51:18;10.20;99.90
3944;DHT22;1986;52.546;13.428;2023-03-19T09:53:52;10.20;99.90
3944;DHT22;1986;52.546;13.428;2023-03-19T09:56:23;10.40;99.90
3944;DHT22;1986;52.546;13.428;2023-03-19T09:58:51;10.60;99.90
3944;DHT22;1986;52.546;13.428;2023-03-19T10:01:24;10.80;99.90
3944;DHT22;1986;52.546;13.428;2023-03-19T10:04:31;10.90;99.90
3944;DHT22;1986;52.546;13.428;2023-03-19T10:07:08;10.90;99.90
3944;DHT22;1986;52.546;13.428;2023-03-19T10:09:47;10.90;99.90
3944;DHT22;1986;52.546;13.428;2023-03-19T10:12:27;10.90;99.90
3944;DHT22;1986;52.546;13.428;2023-03-19T10:15:18;11.00;99.90
3944;DHT22;1986;52.546;13.428;2023-03-19T10:17:56;11.10;99.90
3944;DHT22;1986;52.546;13.428;2023-03-19T10:20:40;11.20;99.90
3944;DHT22;1986;52.546;13.428;2023-03-19T10:23:26;11.30;99.90
3944;DHT22;1986;52.546;13.428;2023-03-19T10:25:57;11.40;99.90
3944;DHT22;1986;52.546;13.428;2023-03-19T10:28:29;11.40;99.90
3944;DHT22;1986;52.546;13.428;2023-03-19T10:31:06;11.60;99.90
3944;DHT22;1986;52.546;13.428;2023-03-19T10:33:41;11.60;99.90
3944;DHT22;1986;52.546;13.428;2023-03-19T10:36:10;11.60;99.90
3944;DHT22;1986;52.546;13.428;2023-03-19T10:38:43;11.60;99.90
3944;DHT22;1986;52.546;13.428;2023-03-19T10:41:32;11.70;99.90
3944;DHT22;1986;52.546;13.428;2023-03-19T10:44:02;11.70;99.90
3944;DHT22;1986;52.546;13.428;2023-03-19T10:46:38;11.90;99.90
3944;DHT22;1986;52.546;13.428;2023-03-19T10:49:10;12.00;99.90
3944;DHT22;1986;52.546;13.428;2023-03-19T10:51:37;12.10;99.90
3944;DHT22;1986;52.546;13.428;2023-03-19T10:54:18;12.20;99.90
3944;DHT22;1986;52.546;13.428;2023-03-19T10:56:46;12.40;99.90
3944;DHT22;1986;52.546;13.428;2023-03-19T10:59:22;12.00;99.90
3944;DHT22;1986;52.546;13.428;2023-03-19T11:01:49;12.10;99.90
3944;DHT22;1986;52.546;13.428;2023-03-19T11:04:22;12.20;99.90
3944;DHT22;1986;52.546;13.428;2023-03-19T11:06:51;12.40;99.90
3944;DHT22;1986;52.546;13.428;2023-03-19T11:09:25;12.20;99.90
3944;DHT22;1986;52.546;13.428;2023-03-19T11:11:58;12.30;99.90
3944;DHT22;1986;52.546;13.428;2023-03-19T11:14:34;12.40;99.90
3944;DHT22;1986;52.546;13.428;2023-03-19T11:17:18;12.50;99.90
3944;DHT22;1986;52.546;13.428;2023-03-19T11:19:51;12.50;99.90
3944;DHT22;1986;52.546;13.428;2023-03-19T11:22:23;12.60;99.90
3944;DHT22;1986;52.546;13.428;2023-03-19T11:24:54;12.90;99.90
3944;DHT22;1986;52.546;13.428;2023-03-19T11:27:29;12.70;99.90
3944;DHT22;1986;52.546;13.428;2023-03-19T11:29:59;12.60;99.90
3944;DHT22;1986;52.546;13.428;2023-03-19T11:32:49;12.50;99.90
3944;DHT22;1986;52.546;13.428;2023-03-19T11:35:20;12.70;99.90
3944;DHT22;1986;52.546;13.428;2023-03-19T11:37:54;12.80;99.90
3944;DHT22;1986;52.546;13.428;2023-03-19T11:40:33;13.00;99.90
3944;DHT22;1986;52.546;13.428;2023-03-19T11:43:23;13.20;99.90
3944;DHT22;1986;52.546;13.428;2023-03-19T11:46:02;13.20;99.90
3944;DHT22;1986;52.546;13.428;2023-03-19T11:48:47;13.40;99.90
3944;DHT22;1986;52.546;13.428;2023-03-19T11:51:19;13.50;99.90
3944;DHT22;1986;52.546;13.428;2023-03-19T11:53:59;13.40;99.90
3944;DHT22;1986;52.546;13.428;2023-03-19T11:56:37;13.40;99.90
3944;DHT22;1986;52.546;13.428;2023-03-19T11:59:25;13.30;99.90
3944;DHT22;1986;52.546;13.428;2023-03-19T12:02:16;13.30;99.90
3944;DHT22;1986;52.546;13.428;2023-03-19T12:05:20;13.10;99.90
3944;DHT22;1986;52.546;13.428;2023-03-19T12:08:03;13.00;99.90
3944;DHT22;1986;52.546;13.428;2023-03-19T12:10:44;13.20;99.90
3944;DHT22;1986;52.546;13.428;2023-03-19T12:13:31;13.40;99.90
3944;DHT22;1986;52.546;13.428;2023-03-19T12:16:13;13.60;99.90
3944;DHT22;1986;52.546;13.428;2023-03-19T12:19:00;13.60;99.90
3944;DHT22;1986;52.546;13.428;2023-03-19T12:21:33;13.50;99.90
3944;DHT22;1986;52.546;13.428;2023-03-19T12:24:11;13.40;99.90
3944;DHT22;1986;52.546;13.428;2023-03-19T12:26:50;13.70;99.90
3944;DHT22;1986;52.546;13.428;2023-03-19T12:29:28;13.90;99.90
3944;DHT22;1986;52.546;13.428;2023-03-19T12:32:13;14.00;99.90
3944;DHT22;1986;52.546;13.428;2023-03-19T12:34:48;14.30;99.90
3944;DHT22;1986;52.546;13.428;2023-03-19T12:37:21;14.30;99.90
3944;DHT22;1986;52.546;13.428;2023-03-19T12:39:59;14.20;99.90
3944;DHT22;1986;52.546;13.428;2023-03-19T12:42:36;14.40;99.90
3944;DHT22;1986;52.546;13.428;2023-03-19T12:45:16;14.70;99.90
3944;DHT22;1986;52.546;13.428;2023-03-19T12:47:45;14.40;99.90
3944;DHT22;1986;52.546;13.428;2023-03-19T12:50:13;14.40;99.90
3944;DHT22;1986;52.546;13.428;2023-03-19T12:52:45;14.70;99.90
3944;DHT22;1986;52.546;13.428;2023-03-19T12:55:19;14.70;99.90
3944;DHT22;1986;52.546;13.428;2023-03-19T12:57:49;14.70;99.90
3944;DHT22;1986;52.546;13.428;2023-03-19T13:00:24;14.80;99.90
3944;DHT22;1986;52.546;13.428;2023-03-19T13:02:55;14.40;99.90
3944;DHT22;1986;52.546;13.428;2023-03-19T13:05:31;14.50;99.90
3944;DHT22;1986;52.546;13.428;2023-03-19T13:08:04;14.70;99.90
3944;DHT22;1986;52.546;13.428;2023-03-19T13:10:32;14.50;99.90
3944;DHT22;1986;52.546;13.428;2023-03-19T13:13:01;14.40;99.90
3944;DHT22;1986;52.546;13.428;2023-03-19T13:15:35;14.40;99.90
3944;DHT22;1986;52.546;13.428;2023-03-19T13:18:11;14.40;99.90
3944;DHT22;1986;52.546;13.428;2023-03-19T13:20:56;14.80;99.90
3944;DHT22;1986;52.546;13.428;2023-03-19T13:23:31;15.20;99.90
3944;DHT22;1986;52.546;13.428;2023-03-19T13:26:00;15.30;99.90
3944;DHT22;1986;52.546;13.428;2023-03-19T13:28:32;15.30;99.90
3944;DHT22;1986;52.546;13.428;2023-03-19T13:31:02;15.00;99.90
3944;DHT22;1986;52.546;13.428;2023-03-19T13:33:31;14.90;99.90
3944;DHT22;1986;52.546;13.428;2023-03-19T13:36:01;14.70;99.90
3944;DHT22;1986;52.546;13.428;2023-03-19T13:38:36;14.80;99.90
3944;DHT22;1986;52.546;13.428;2023-03-19T13:41:04;14.90;99.90
3944;DHT22;1986;52.546;13.428;2023-03-19T13:43:41;15.10;99.90
3944;DHT22;1986;52.546;13.428;2023-03-19T13:46:36;15.50;99.90
3944;DHT22;1986;52.546;13.428;2023-03-19T13:49:25;15.80;99.90
3944;DHT22;1986;52.546;13.428;2023-03-19T13:51:54;15.40;99.90
3944;DHT22;1986;52.546;13.428;2023-03-19T13:54:33;15.40;99.90
3944;DHT22;1986;52.546;13.428;2023-03-19T14:00:54;15.30;99.90
3944;DHT22;1986;52.546;13.428;2023-03-19T14:03:25;15.40;99.90
3944;DHT22;1986;52.546;13.428;2023-03-19T14:05:54;15.30;99.90
3944;DHT22;1986;52.546;13.428;2023-03-19T14:08:24;15.40;99.90
3944;DHT22;1986;52.546;13.428;2023-03-19T14:10:53;15.60;99.90
3944;DHT22;1986;52.546;13.428;2023-03-19T14:13:28;15.80;99.90
3944;DHT22;1986;52.546;13.428;2023-03-19T14:16:29;15.70;99.90
3944;DHT22;1986;52.546;13.428;2023-03-19T14:19:00;15.80;99.90
3944;DHT22;1986;52.546;13.428;2023-03-19T14:21:32;16.00;99.90
3944;DHT22;1986;52.546;13.428;2023-03-19T14:24:27;15.80;99.90
3944;DHT22;1986;52.546;13.428;2023-03-19T14:27:00;15.60;99.90
3944;DHT22;1986;52.546;13.428;2023-03-19T14:29:33;15.80;99.90
3944;DHT22;1986;52.546;13.428;2023-03-19T14:32:06;16.10;99.90
3944;DHT22;1986;52.546;13.428;2023-03-19T14:34:39;16.10;99.90
3944;DHT22;1986;52.546;13.428;2023-03-19T14:37:17;15.80;99.90
3944;DHT22;1986;52.546;13.428;2023-03-19T14:39:54;15.80;99.90
3944;DHT22;1986;52.546;13.428;2023-03-19T14:42:29;15.90;99.90
3944;DHT22;1986;52.546;13.428;2023-03-19T14:45:42;16.20;99.90
3944;DHT22;1986;52.546;13.428;2023-03-19T14:48:19;16.60;99.90
3944;DHT22;1986;52.546;13.428;2023-03-19T14:51:15;16.60;99.90
3944;DHT22;1986;52.546;13.428;2023-03-19T14:53:47;16.30;99.90
3944;DHT22;1986;52.546;13.428;2023-03-19T14:56:19;16.40;99.90
3944;DHT22;1986;52.546;13.428;2023-03-19T14:58:51;16.50;99.90
3944;DHT22;1986;52.546;13.428;2023-03-19T15:01:19;16.50;99.90
3944;DHT22;1986;52.546;13.428;2023-03-19T15:03:52;16.30;99.90
3944;DHT22;1986;52.546;13.428;2023-03-19T15:06:22;16.30;99.90
3944;DHT22;1986;52.546;13.428;2023-03-19T15:08:51;16.30;99.90
3944;DHT22;1986;52.546;13.428;2023-03-19T15:14:41;16.30;99.90
3944;DHT22;1986;52.546;13.428;2023-03-19T15:17:24;16.20;99.90
3944;DHT22;1986;52.546;13.428;2023-03-19T15:19:54;16.20;99.90
3944;DHT22;1986;52.546;13.428;2023-03-19T15:22:29;16.30;99.90
3944;DHT22;1986;52.546;13.428;2023-03-19T15:25:04;16.40;99.90
3944;DHT22;1986;52.546;13.428;2023-03-19T15:27:31;16.40;99.90
3944;DHT22;1986;52.546;13.428;2023-03-19T15:30:18;16.40;99.90
3944;DHT22;1986;52.546;13.428;2023-03-19T15:32:46;16.40;99.90
3944;DHT22;1986;52.546;13.428;2023-03-19T15:35:14;16.40;99.90
3944;DHT22;1986;52.546;13.428;2023-03-19T15:37:45;16.40;99.90
3944;DHT22;1986;52.546;13.428;2023-03-19T15:40:16;16.50;99.90
3944;DHT22;1986;52.546;13.428;2023-03-19T15:42:45;16.60;99.90
3944;DHT22;1986;52.546;13.428;2023-03-19T15:45:15;16.60;99.90
3944;DHT22;1986;52.546;13.428;2023-03-19T15:47:46;16.40;99.90
3944;DHT22;1986;52.546;13.428;2023-03-19T15:50:17;16.30;99.90
3944;DHT22;1986;52.546;13.428;2023-03-19T15:52:52;16.20;99.90
3944;DHT22;1986;52.546;13.428;2023-03-19T15:55:22;16.20;99.90
3944;DHT22;1986;52.546;13.428;2023-03-19T15:57:53;16.20;99.90
3944;DHT22;1986;52.546;13.428;2023-03-19T16:00:21;16.30;99.90
3944;DHT22;1986;52.546;13.428;2023-03-19T16:02:55;16.30;99.90
3944;DHT22;1986;52.546;13.428;2023-03-19T16:05:24;16.30;99.90
3944;DHT22;1986;52.546;13.428;2023-03-19T16:07:57;16.30;99.90
3944;DHT22;1986;52.546;13.428;2023-03-19T16:10:34;16.50;99.90
3944;DHT22;1986;52.546;13.428;2023-03-19T16:13:19;16.50;99.90
3944;DHT22;1986;52.546;13.428;2023-03-19T16:15:53;16.50;99.90
3944;DHT22;1986;52.546;13.428;2023-03-19T16:18:25;16.50;99.90
3944;DHT22;1986;52.546;13.428;2023-03-19T16:21:05;16.30;99.90
3944;DHT22;1986;52.546;13.428;2023-03-19T16:23:36;16.30;99.90
3944;DHT22;1986;52.546;13.428;2023-03-19T16:26:14;16.20;99.90